createdAt,value
2018-04-28T00:00:28.169Z,4.40
2018-04-28T00:06:22.606Z,4.80
2018-04-28T00:08:55.585Z,4.67
2018-04-28T00:11:29.373Z,4.90
2018-04-28T00:14:02.348Z,5.07
2018-04-28T00:16:49.186Z,5.50
2018-04-28T00:19:26.162Z,5.63
2018-04-28T00:25:10.899Z,4.77
2018-04-28T00:28:04.458Z,5.10
2018-04-28T00:30:39.227Z,5.67
2018-04-28T00:33:14.065Z,5.33
2018-04-28T00:35:47.037Z,5.70
2018-04-28T00:38:20.051Z,5.50
2018-04-28T00:40:53.011Z,5.77
2018-04-28T00:43:28.905Z,5.57
2018-04-28T00:46:17.603Z,5.23
2018-04-28T00:48:56.209Z,4.97
2018-04-28T00:51:33.344Z,5.33
2018-04-28T00:54:11.231Z,5.33
2018-04-28T00:56:52.152Z,5.13
2018-04-28T00:59:28.683Z,5.60
2018-04-28T01:02:01.657Z,5.47
2018-04-28T01:04:43.337Z,5.20
2018-04-28T01:07:29.202Z,4.90
2018-04-28T01:10:08.075Z,5.07
2018-04-28T01:12:41.219Z,5.30
2018-04-28T01:18:24.217Z,6.07
2018-04-28T01:21:02.813Z,5.23
2018-04-28T01:23:38.756Z,5.37
2018-04-28T01:26:21.595Z,5.37
2018-04-28T01:29:05.413Z,5.40
2018-04-28T01:31:40.928Z,5.93
2018-04-28T01:34:22.719Z,5.40
2018-04-28T01:36:57.436Z,5.57
2018-04-28T01:39:44.928Z,6.10
2018-04-28T01:42:20.478Z,6.33
2018-04-28T01:48:25.696Z,5.83
2018-04-28T01:51:12.292Z,5.50
2018-04-28T01:54:16.873Z,5.97
2018-04-28T01:56:53.512Z,5.37
2018-04-28T01:59:28.293Z,5.77
2018-04-28T02:02:08.148Z,5.43
2018-04-28T02:07:50.893Z,5.90
2018-04-28T02:10:37.744Z,6.07
2018-04-28T02:13:12.252Z,5.60
2018-04-28T02:15:48.093Z,6.27
2018-04-28T02:21:30.557Z,5.80
2018-04-28T02:24:15.134Z,5.80
2018-04-28T02:26:50.019Z,5.90
2018-04-28T02:29:38.781Z,6.40
2018-04-28T02:32:12.716Z,6.07
2018-04-28T02:35:08.909Z,6.53
2018-04-28T02:38:15.394Z,6.60
2018-04-28T02:41:09.515Z,6.37
2018-04-28T02:43:49.254Z,6.23
2018-04-28T02:46:39.946Z,6.33
2018-04-28T02:49:19.893Z,7.43
2018-04-28T02:52:05.550Z,6.70
2018-04-28T02:54:39.327Z,6.03
2018-04-28T03:00:20.186Z,7.23
2018-04-28T03:06:36.426Z,10.90
2018-04-28T03:09:11.151Z,6.63
2018-04-28T03:11:44.145Z,7.23
2018-04-28T03:14:18.048Z,6.53
2018-04-28T03:17:10.866Z,7.13
2018-04-28T03:19:44.683Z,6.90
2018-04-28T03:22:19.596Z,7.50
2018-04-28T03:24:55.474Z,7.50
2018-04-28T03:27:49.293Z,6.70
2018-04-28T03:30:29.113Z,7.50
2018-04-28T03:33:09.727Z,7.67
2018-04-28T03:35:53.989Z,7.63
2018-04-28T03:38:33.789Z,7.87
2018-04-28T03:41:13.722Z,8.63
2018-04-28T03:43:46.689Z,8.90
2018-04-28T03:46:26.428Z,8.83
2018-04-28T03:49:08.165Z,8.93
2018-04-28T03:51:53.999Z,7.87
2018-04-28T03:54:45.198Z,8.57
2018-04-28T03:57:38.925Z,8.70
2018-04-28T04:00:23.683Z,9.50
2018-04-28T04:03:20.536Z,9.40
2018-04-28T04:06:16.049Z,8.47
2018-04-28T04:08:52.549Z,8.37
2018-04-28T04:11:31.464Z,8.40
2018-04-28T04:14:12.300Z,8.37
2018-04-28T04:16:51.068Z,8.67
2018-04-28T04:22:39.506Z,7.80
2018-04-28T04:25:19.144Z,7.80
2018-04-28T04:28:04.610Z,7.77
2018-04-28T04:30:45.286Z,7.27
2018-04-28T04:36:51.770Z,8.13
2018-04-28T04:39:30.460Z,7.67
2018-04-28T04:42:09.295Z,7.60
2018-04-28T04:44:47.170Z,7.60
2018-04-28T04:47:31.863Z,7.53
2018-04-28T04:50:15.649Z,7.53
2018-04-28T04:52:57.500Z,7.63
2018-04-28T04:55:35.144Z,7.50
2018-04-28T04:58:33.997Z,7.40
2018-04-28T05:01:21.570Z,8.80
2018-04-28T05:04:15.310Z,7.47
2018-04-28T05:06:57.279Z,7.77
2018-04-28T05:09:52.669Z,8.23
2018-04-28T05:12:28.579Z,7.97
2018-04-28T05:15:14.277Z,7.37
2018-04-28T05:21:14.775Z,8.07
2018-04-28T05:24:14.412Z,7.43
2018-04-28T05:26:54.227Z,7.47
2018-04-28T05:29:37.665Z,8.03
2018-04-28T05:32:28.263Z,7.27
2018-04-28T05:35:36.570Z,7.77
2018-04-28T05:38:36.825Z,8.00
2018-04-28T05:41:21.631Z,7.33
2018-04-28T05:44:17.192Z,7.30
2018-04-28T05:46:54.218Z,7.67
2018-04-28T05:52:50.909Z,7.33
2018-04-28T05:55:45.944Z,6.67
2018-04-28T05:58:42.949Z,6.40
2018-04-28T06:01:30.514Z,6.23
2018-04-28T06:07:17.520Z,5.77
2018-04-28T06:10:20.992Z,5.97
2018-04-28T06:13:11.320Z,5.57
2018-04-28T06:15:53.959Z,4.97
2018-04-28T06:18:40.599Z,5.43
2018-04-28T06:21:14.799Z,6.18
2018-04-28T06:23:55.765Z,5.60
2018-04-28T06:26:29.371Z,5.32
2018-04-28T06:29:04.674Z,5.57
2018-04-28T06:31:39.183Z,5.57
2018-04-28T06:34:13.673Z,5.53
2018-04-28T06:36:48.175Z,6.05
2018-04-28T06:39:21.761Z,5.07
2018-04-28T06:41:56.052Z,5.55
2018-04-28T06:44:30.273Z,5.60
2018-04-28T06:47:03.596Z,5.97
2018-04-28T06:49:36.627Z,6.23
2018-04-28T06:52:10.259Z,5.53
2018-04-28T06:54:43.927Z,5.50
2018-04-28T06:57:17.678Z,5.40
2018-04-28T06:59:53.001Z,5.70
2018-04-28T07:02:26.548Z,5.70
2018-04-28T07:05:01.243Z,5.37
2018-04-28T07:07:35.585Z,4.95
2018-04-28T07:10:10.775Z,5.60
2018-04-28T07:12:44.650Z,4.82
2018-04-28T07:15:18.256Z,4.93
2018-04-28T07:17:51.792Z,4.95
2018-04-28T07:20:26.474Z,4.90
2018-04-28T07:23:00.999Z,4.50
2018-04-28T07:25:34.639Z,5.05
2018-04-28T07:28:08.953Z,5.18
2018-04-28T07:30:43.986Z,5.20
2018-04-28T07:33:18.302Z,5.30
2018-04-28T07:35:51.895Z,5.70
2018-04-28T07:38:26.213Z,5.60
2018-04-28T07:40:59.792Z,5.78
2018-04-28T07:43:33.359Z,6.47
2018-04-28T07:46:07.266Z,5.15
2018-04-28T07:48:40.824Z,5.78
2018-04-28T07:51:16.798Z,5.43
2018-04-28T07:53:51.012Z,5.60
2018-04-28T07:56:25.577Z,5.80
2018-04-28T07:58:59.783Z,5.53
2018-04-28T08:01:33.349Z,5.80
2018-04-28T08:04:06.944Z,5.60
2018-04-28T08:06:41.522Z,5.93
2018-04-28T08:09:15.061Z,5.90
2018-04-28T08:11:49.404Z,5.60
2018-04-28T08:14:22.948Z,5.37
2018-04-28T08:16:56.498Z,5.05
2018-04-28T08:19:30.046Z,5.57
2018-04-28T08:22:04.390Z,5.05
2018-04-28T08:24:38.883Z,5.37
2018-04-28T08:27:13.419Z,5.60
2018-04-28T08:29:47.531Z,5.78
2018-04-28T08:32:21.151Z,5.00
2018-04-28T08:34:55.674Z,4.72
2018-04-28T08:37:29.269Z,5.40
2018-04-28T08:40:02.829Z,4.68
2018-04-28T08:42:36.421Z,4.97
2018-04-28T08:45:10.370Z,4.57
2018-04-28T08:47:44.605Z,4.93
2018-04-28T08:50:18.822Z,4.90
2018-04-28T08:52:59.879Z,5.22
2018-04-28T08:55:36.830Z,5.68
2018-04-28T08:58:21.862Z,4.00
2018-04-28T09:01:09.497Z,3.45
2018-04-28T09:03:50.410Z,4.03
2018-04-28T09:06:24.676Z,4.20
2018-04-28T09:09:00.406Z,4.57
2018-04-28T09:11:34.702Z,4.80
2018-04-28T09:14:14.356Z,4.40
2018-04-28T09:16:49.596Z,3.58
2018-04-28T09:19:33.184Z,3.92
2018-04-28T09:22:09.093Z,4.10
2018-04-28T09:24:44.298Z,4.18
2018-04-28T09:27:18.531Z,4.00
2018-04-28T09:29:52.372Z,3.97
2018-04-28T09:32:27.559Z,3.67
2018-04-28T09:35:01.794Z,3.67
2018-04-28T09:37:36.052Z,4.40
2018-04-28T09:40:11.429Z,3.17
2018-04-28T09:42:45.343Z,4.37
2018-04-28T09:45:19.756Z,4.75
2018-04-28T09:47:53.952Z,4.18
2018-04-28T09:53:36.876Z,4.97
2018-04-28T09:56:12.839Z,5.03
2018-04-28T09:58:47.033Z,6.62
2018-04-28T10:01:21.488Z,5.07
2018-04-28T10:03:56.270Z,5.35
2018-04-28T10:06:39.799Z,5.50
2018-04-28T10:09:15.180Z,5.70
2018-04-28T10:14:39.247Z,5.15
2018-04-28T10:17:13.684Z,4.45
2018-04-28T10:19:54.079Z,4.55
2018-04-28T10:22:28.445Z,4.10
2018-04-28T10:25:03.630Z,4.32
2018-04-28T10:27:37.944Z,4.07
2018-04-28T10:30:12.129Z,4.00
2018-04-28T10:32:47.317Z,3.60
2018-04-28T10:35:22.476Z,4.20
2018-04-28T10:37:56.710Z,4.72
2018-04-28T10:40:31.672Z,4.47
2018-04-28T10:43:05.901Z,4.20
2018-04-28T10:45:40.092Z,4.15
2018-04-28T10:48:16.040Z,4.30
2018-04-28T10:50:50.232Z,4.15
2018-04-28T10:53:25.421Z,5.03
2018-04-28T10:55:59.615Z,4.60
2018-04-28T10:58:33.843Z,4.95
2018-04-28T11:01:08.071Z,5.45
2018-04-28T11:03:43.268Z,5.15
2018-04-28T11:06:18.253Z,4.75
2018-04-28T11:08:52.649Z,5.32
2018-04-28T11:11:26.828Z,5.15
2018-04-28T11:14:01.821Z,5.15
2018-04-28T11:16:36.972Z,4.20
2018-04-28T11:19:10.976Z,4.72
2018-04-28T11:21:46.097Z,4.50
2018-04-28T11:24:20.326Z,3.83
2018-04-28T11:26:55.285Z,3.78
2018-04-28T11:29:30.499Z,3.90
2018-04-28T11:32:04.677Z,4.72
2018-04-28T11:34:38.895Z,4.60
2018-04-28T11:37:13.089Z,4.43
2018-04-28T11:39:47.292Z,4.65
2018-04-28T11:42:21.484Z,4.45
2018-04-28T11:44:56.478Z,3.90
2018-04-28T11:47:30.670Z,4.28
2018-04-28T11:50:04.246Z,4.28
2018-04-28T11:52:39.402Z,3.83
2018-04-28T11:55:13.302Z,3.83
2018-04-28T11:57:47.492Z,3.03
2018-04-28T12:00:21.715Z,2.55
2018-04-28T12:02:55.912Z,2.45
2018-04-28T12:05:30.912Z,2.35
2018-04-28T12:08:05.121Z,1.92
2018-04-28T12:10:40.142Z,2.90
2018-04-28T12:13:15.319Z,2.92
2018-04-28T12:15:51.284Z,3.10
2018-04-28T12:18:26.440Z,3.00
2018-04-28T12:21:01.650Z,3.50
2018-04-28T12:23:36.617Z,3.47
2018-04-28T12:26:11.819Z,4.03
2018-04-28T12:28:46.783Z,4.32
2018-04-28T12:31:21.037Z,3.78
2018-04-28T12:33:55.296Z,3.90
2018-04-28T12:36:29.670Z,3.78
2018-04-28T12:39:03.560Z,3.95
2018-04-28T12:41:37.785Z,5.03
2018-04-28T12:44:12.022Z,4.93
2018-04-28T12:46:47.987Z,4.93
2018-04-28T12:49:22.951Z,4.07
2018-04-28T12:51:57.175Z,4.53
2018-04-28T12:54:31.392Z,4.35
2018-04-28T12:57:06.286Z,3.60
2018-04-28T12:59:41.240Z,3.10
2018-04-28T13:02:17.193Z,3.80
2018-04-28T13:04:51.376Z,3.53
2018-04-28T13:07:27.331Z,3.42
2018-04-28T13:10:03.286Z,3.70
2018-04-28T13:12:39.301Z,4.05
2018-04-28T13:15:14.544Z,5.03
2018-04-28T13:17:48.739Z,5.30
2018-04-28T13:20:22.972Z,6.25
2018-04-28T13:22:57.182Z,5.30
2018-04-28T13:25:31.420Z,7.20
2018-04-28T13:28:06.572Z,6.55
2018-04-28T13:30:41.569Z,6.72
2018-04-28T13:33:16.551Z,6.65
2018-04-28T13:35:50.866Z,7.05
2018-04-28T13:38:26.773Z,7.22
2018-04-28T13:41:01.099Z,7.30
2018-04-28T13:43:36.191Z,6.57
2018-04-28T13:46:10.436Z,6.87
2018-04-28T13:48:45.604Z,7.70
2018-04-28T13:51:21.186Z,7.75
2018-04-28T13:53:55.388Z,6.95
2018-04-28T13:56:29.649Z,7.00
2018-04-28T13:59:04.886Z,7.60
2018-04-28T14:01:39.117Z,7.50
2018-04-28T14:04:13.295Z,8.05
2018-04-28T14:06:47.308Z,7.10
2018-04-28T14:09:20.978Z,11.95
2018-04-28T14:11:56.137Z,8.68
2018-04-28T14:14:30.219Z,10.32
2018-04-28T14:17:04.469Z,7.37
2018-04-28T14:19:38.693Z,6.20
2018-04-28T14:22:12.934Z,6.22
2018-04-28T14:24:47.905Z,6.62
2018-04-28T14:27:21.908Z,5.97
2018-04-28T14:29:55.860Z,6.40
2018-04-28T14:32:30.094Z,7.50
2018-04-28T14:35:03.975Z,4.62
2018-04-28T14:37:38.198Z,6.22
2018-04-28T14:40:12.382Z,5.55
2018-04-28T14:42:47.545Z,8.23
2018-04-28T14:45:21.773Z,4.25
2018-04-28T14:47:55.954Z,3.90
2018-04-28T14:50:31.198Z,3.53
2018-04-28T14:53:05.396Z,8.20
2018-04-28T14:55:39.645Z,7.05
2018-04-28T14:58:13.835Z,8.05
2018-04-28T15:00:48.061Z,9.05
2018-04-28T15:03:22.292Z,9.07
2018-04-28T15:05:57.304Z,10.10
2018-04-28T15:08:31.513Z,9.30
2018-04-28T15:11:06.705Z,8.90
2018-04-28T15:13:40.904Z,8.93
2018-04-28T15:16:15.913Z,9.00
2018-04-28T15:18:50.122Z,9.15
2018-04-28T15:21:25.332Z,10.50
2018-04-28T15:23:59.536Z,9.02
2018-04-28T15:26:34.734Z,7.97
2018-04-28T15:29:08.939Z,9.80
2018-04-28T15:31:43.188Z,8.98
2018-04-28T15:34:17.401Z,9.25
2018-04-28T15:36:52.651Z,8.65
2018-04-28T15:39:26.864Z,9.07
2018-04-28T15:42:02.063Z,8.18
2018-04-28T15:44:37.038Z,8.02
2018-04-28T15:47:11.257Z,6.93
2018-04-28T15:49:45.452Z,7.37
2018-04-28T15:52:19.681Z,7.60
2018-04-28T15:54:53.882Z,7.32
2018-04-28T15:57:30.803Z,6.85
2018-04-28T16:00:04.775Z,6.43
2018-04-28T16:02:39.093Z,6.55
2018-04-28T16:05:13.406Z,5.15
2018-04-28T16:07:47.677Z,5.03
2018-04-28T16:10:21.868Z,4.62
2018-04-28T16:12:55.804Z,4.80
2018-04-28T16:15:30.784Z,4.82
2018-04-28T16:18:06.018Z,3.95
2018-04-28T16:20:40.248Z,4.10
2018-04-28T16:23:14.478Z,3.85
2018-04-28T16:25:48.665Z,4.62
2018-04-28T16:28:23.877Z,3.90
2018-04-28T16:30:59.041Z,3.20
2018-04-28T16:33:33.279Z,5.72
2018-04-28T16:36:07.481Z,6.55
2018-04-28T16:38:42.723Z,6.57
2018-04-28T16:41:16.947Z,7.22
2018-04-28T16:43:51.166Z,6.62
2018-04-28T16:46:25.378Z,7.47
2018-04-28T16:49:00.609Z,6.53
2018-04-28T16:51:34.802Z,6.57
2018-04-28T16:54:08.827Z,6.53
2018-04-28T16:56:43.760Z,6.72
2018-04-28T16:59:18.006Z,6.50
2018-04-28T17:01:52.975Z,6.93
2018-04-28T17:04:28.203Z,6.25
2018-04-28T17:07:12.712Z,6.18
2018-04-28T17:09:47.020Z,6.00
2018-04-28T17:12:21.266Z,5.57
2018-04-28T17:14:55.650Z,6.22
2018-04-28T17:20:44.407Z,6.93
2018-04-28T17:23:18.601Z,6.90
2018-04-28T17:25:55.050Z,7.95
2018-04-28T17:28:29.250Z,8.20
2018-04-28T17:31:03.492Z,8.38
2018-04-28T17:33:37.695Z,8.40
2018-04-28T17:36:11.947Z,8.60
2018-04-28T17:38:46.145Z,9.40
2018-04-28T17:41:21.349Z,9.75
2018-04-28T17:43:55.546Z,9.30
2018-04-28T17:46:29.214Z,10.00
2018-04-28T17:49:02.848Z,10.23
2018-04-28T17:51:36.551Z,10.60
2018-04-28T17:54:10.201Z,10.53
2018-04-28T17:56:44.653Z,11.27
2018-04-28T17:59:19.281Z,10.93
2018-04-28T18:01:53.950Z,10.60
2018-04-28T18:04:27.634Z,11.13
2018-04-28T18:07:01.304Z,10.60
2018-04-28T18:09:35.008Z,11.20
2018-04-28T18:12:08.654Z,10.50
2018-04-28T18:14:43.389Z,9.90
2018-04-28T18:17:18.862Z,9.97
2018-04-28T18:19:53.510Z,9.80
2018-04-28T18:22:27.164Z,10.40
2018-04-28T18:25:02.583Z,10.90
2018-04-28T18:27:36.248Z,11.07
2018-04-28T18:30:09.925Z,10.73
2018-04-28T18:32:43.569Z,10.93
2018-04-28T18:35:17.248Z,11.43
2018-04-28T18:37:50.785Z,11.37
2018-04-28T18:40:25.248Z,12.03
2018-04-28T18:42:58.889Z,12.10
2018-04-28T18:45:33.540Z,13.00
2018-04-28T18:48:08.075Z,12.40
2018-04-28T18:50:43.513Z,13.33
2018-04-28T18:53:17.921Z,13.63
2018-04-28T18:55:51.264Z,14.73
2018-04-28T18:58:24.901Z,16.27
2018-04-28T19:00:58.583Z,15.30
2018-04-28T19:03:32.239Z,15.47
2018-04-28T19:06:08.651Z,16.00
2018-04-28T19:08:43.562Z,17.33
2018-04-28T19:14:11.755Z,16.70
2018-04-28T19:16:47.725Z,16.93
2018-04-28T19:19:21.380Z,16.90
2018-04-28T19:21:56.808Z,17.23
2018-04-28T19:24:32.181Z,19.20
2018-04-28T19:27:06.833Z,18.93
2018-04-28T19:29:40.469Z,20.20
2018-04-28T19:32:15.152Z,20.27
2018-04-28T19:34:56.607Z,19.43
2018-04-28T19:37:35.720Z,20.13
2018-04-28T19:40:10.116Z,20.23
2018-04-28T19:42:45.215Z,19.57
2018-04-28T19:45:18.858Z,20.93
2018-04-28T19:47:52.539Z,19.93
2018-04-28T19:50:26.182Z,19.20
2018-04-28T19:53:00.702Z,20.60
2018-04-28T19:55:35.108Z,20.70
2018-04-28T19:58:10.533Z,20.50
2018-04-28T20:00:44.281Z,20.90
2018-04-28T20:03:17.967Z,20.70
2018-04-28T20:05:52.376Z,20.00
2018-04-28T20:08:26.836Z,22.43
2018-04-28T20:11:00.487Z,21.17
2018-04-28T20:13:34.175Z,21.47
2018-04-28T20:16:07.812Z,21.50
2018-04-28T20:18:41.486Z,21.53
2018-04-28T20:21:15.133Z,20.83
2018-04-28T20:24:00.075Z,20.57
2018-04-28T20:26:35.454Z,21.13
2018-04-28T20:29:09.152Z,23.30
2018-04-28T20:31:42.793Z,24.63
2018-04-28T20:34:16.519Z,24.67
2018-04-28T20:36:50.918Z,24.10
2018-04-28T20:39:24.685Z,25.63
2018-04-28T20:41:58.318Z,27.93
2018-04-28T20:44:31.992Z,25.17
2018-04-28T20:47:05.672Z,25.20
2018-04-28T20:49:40.268Z,24.37
2018-04-28T20:52:13.952Z,24.30
2018-04-28T20:54:48.344Z,26.47
2018-04-28T20:57:22.013Z,24.33
2018-04-28T20:59:57.398Z,24.53
2018-04-28T21:02:32.070Z,25.90
2018-04-28T21:05:05.708Z,26.27
2018-04-28T21:07:39.382Z,27.50
2018-04-28T21:10:14.080Z,27.20
2018-04-28T21:12:48.477Z,25.03
2018-04-28T21:15:27.538Z,24.50
2018-04-28T21:18:01.792Z,24.97
2018-04-28T21:20:42.570Z,25.23
2018-04-28T21:23:17.578Z,25.27
2018-04-28T21:25:51.355Z,26.27
2018-04-28T21:28:27.156Z,24.37
2018-04-28T21:31:01.849Z,26.20
2018-04-28T21:33:35.325Z,29.07
2018-04-28T21:36:08.974Z,27.90
2018-04-28T21:38:42.668Z,29.60
2018-04-28T21:41:16.295Z,27.80
2018-04-28T21:43:49.969Z,25.20
2018-04-28T21:46:23.612Z,26.60
2018-04-28T21:49:02.636Z,24.80
2018-04-28T21:51:41.615Z,23.93
2018-04-28T21:54:18.612Z,24.83
2018-04-28T21:56:57.018Z,26.27
2018-04-28T21:59:31.789Z,27.87
2018-04-28T22:02:05.425Z,27.53
2018-04-28T22:04:40.067Z,27.33
2018-04-28T22:07:14.656Z,26.67
2018-04-28T22:09:48.328Z,28.30
2018-04-28T22:12:39.929Z,27.33
2018-04-28T22:15:13.598Z,28.27
2018-04-28T22:17:56.209Z,27.33
2018-04-28T22:20:38.597Z,27.90
2018-04-28T22:23:16.157Z,28.47
2018-04-28T22:25:50.588Z,30.83
2018-04-28T22:28:24.452Z,29.60
2018-04-28T22:30:58.392Z,30.50
2018-04-28T22:33:33.760Z,29.87
2018-04-28T22:36:09.954Z,29.57
2018-04-28T22:38:45.529Z,27.90
2018-04-28T22:41:20.964Z,30.00
2018-04-28T22:43:54.600Z,29.67
2018-04-28T22:46:28.267Z,29.67
2018-04-28T22:49:01.900Z,28.73
2018-04-28T22:51:36.541Z,29.33
2018-04-28T22:54:10.181Z,29.53
2018-04-28T22:56:43.856Z,28.00
2018-04-28T22:59:17.683Z,29.07
2018-04-28T23:01:51.347Z,29.47
2018-04-28T23:04:24.984Z,27.40
2018-04-28T23:06:58.668Z,27.77
2018-04-28T23:09:33.282Z,28.03
2018-04-28T23:12:07.952Z,27.50
2018-04-28T23:14:42.361Z,25.73
2018-04-28T23:17:16.040Z,25.97
2018-04-28T23:19:49.673Z,25.47
2018-04-28T23:22:24.120Z,24.43
2018-04-28T23:24:57.751Z,24.97
2018-04-28T23:27:31.431Z,24.87
2018-04-28T23:30:04.755Z,25.83
2018-04-28T23:32:38.441Z,22.33
2018-04-28T23:35:12.115Z,23.93
2018-04-28T23:37:45.801Z,25.60
2018-04-28T23:40:21.193Z,25.90
2018-04-28T23:42:54.870Z,26.53
2018-04-28T23:45:28.511Z,27.33
2018-04-28T23:48:02.200Z,26.47
2018-04-28T23:50:35.833Z,27.87
2018-04-28T23:53:10.069Z,28.20
2018-04-28T23:55:43.708Z,27.23
2018-04-28T23:58:17.380Z,28.03
